Terminal Aerodrome Forecast
Issued by NWS Wilmington, OH

Current Version | Previous Version | Text Only | Print | Product List | Glossary Off
Versions: 1 2 3 4 5 6 7 8 9 10 11 12 13 14 15 16 17

000
FTUS41 KILN 011700
TAFDAY
TAF
KDAY 011740Z 0118/0218 36006KT P6SM SCT040 BKN250
     FM020600 07004KT P6SM SCT050 SCT120 BKN250
     FM021300 09006KT P6SM SCT020 OVC050=

USA.gov is the U.S. government's official web portal to all federal, state and local government web resources and services.